Time;durP1;ratioP1;P1;durP2;ratioP2;P2;SDS_P1;SDS_P2;PMS_P1;PMS_P2;Temp;Humidity;BMP_temperature;BMP_pressure;BME280_temperature;BME280_humidity;BME280_pressure;Samples;Min_cycle;Max_cycle;Signal;HPM_P1;HPM_P2
2022/08/01 00:00:10;;;;;;;;;;;18.00;99.90;;;;;;5012899;28;20024;-82
2022/08/01 00:02:39;;;;;;;;;;;18.00;99.90;;;;;;5013032;28;19925;-82
2022/08/01 00:05:05;;;;;;;;;;;18.00;99.90;;;;;;4996429;28;19925;-90
2022/08/01 00:07:31;;;;;;;;;;;18.00;99.90;;;;;;4996251;28;19974;-82
2022/08/01 00:09:57;;;;;;;;;;;17.90;99.90;;;;;;5116134;28;19925;-82
2022/08/01 00:12:23;;;;;;;;;;;18.00;99.90;;;;;;5012733;28;19932;-82
2022/08/01 00:14:48;;;;;;;;;;;18.00;99.90;;;;;;5012625;28;20364;-82
2022/08/01 00:17:14;;;;;;;;;;;17.90;99.90;;;;;;4996347;28;20414;-83
2022/08/01 00:19:39;;;;;;;;;;;17.90;99.90;;;;;;5029192;28;19926;-82
2022/08/01 00:22:05;;;;;;;;;;;17.90;99.90;;;;;;5029162;28;19925;-82
2022/08/01 00:24:30;;;;;;;;;;;17.90;99.90;;;;;;5012658;28;19925;-82
2022/08/01 00:26:56;;;;;;;;;;;17.80;99.90;;;;;;5029002;28;20023;-82
2022/08/01 00:29:22;;;;;;;;;;;17.80;99.90;;;;;;5028950;28;20032;-82
2022/08/01 00:31:47;;;;;;;;;;;17.80;99.90;;;;;;5029092;28;20425;-81
2022/08/01 00:34:13;;;;;;;;;;;17.80;99.90;;;;;;4995711;28;20400;-82
2022/08/01 00:36:39;;;;;;;;;;;17.80;99.90;;;;;;4996073;28;19932;-82
2022/08/01 00:39:04;;;;;;;;;;;17.80;99.90;;;;;;5028592;28;19983;-82
2022/08/01 00:41:30;;;;;;;;;;;17.80;99.90;;;;;;4996062;28;19930;-81
2022/08/01 00:43:55;;;;;;;;;;;17.80;99.90;;;;;;5012745;28;19925;-81
2022/08/01 00:46:21;;;;;;;;;;;17.80;99.90;;;;;;5012216;28;19974;-81
2022/08/01 00:48:47;;;;;;;;;;;17.80;99.90;;;;;;5012435;28;19925;-80
2022/08/01 00:51:12;;;;;;;;;;;17.80;99.90;;;;;;5012279;28;19931;-83
2022/08/01 00:53:38;;;;;;;;;;;17.80;99.90;;;;;;5028665;28;19983;-81
2022/08/01 00:56:04;;;;;;;;;;;17.80;99.90;;;;;;5115691;28;19925;-82
2022/08/01 00:58:32;;;;;;;;;;;17.80;99.90;;;;;;5014894;28;19936;-81
2022/08/01 01:00:58;;;;;;;;;;;17.80;99.90;;;;;;5032214;28;20029;-82
2022/08/01 01:03:23;;;;;;;;;;;17.80;99.90;;;;;;5118744;27;19925;-82
2022/08/01 01:06:12;;;;;;;;;;;17.70;99.90;;;;;;5016053;28;19925;-82
2022/08/01 01:08:54;;;;;;;;;;;17.70;99.90;;;;;;5031609;28;19978;-82
2022/08/01 01:11:31;;;;;;;;;;;17.70;99.90;;;;;;5031891;28;20263;-82
2022/08/01 01:14:02;;;;;;;;;;;17.70;99.90;;;;;;5015312;28;19972;-82
2022/08/01 01:16:30;;;;;;;;;;;17.60;99.90;;;;;;5031679;28;20022;-82
2022/08/01 01:18:58;;;;;;;;;;;17.60;99.90;;;;;;5119031;27;19925;-81
2022/08/01 01:21:23;;;;;;;;;;;17.60;99.90;;;;;;5015161;28;19929;-81
2022/08/01 01:23:55;;;;;;;;;;;17.60;99.90;;;;;;5031693;28;19925;-81
2022/08/01 01:26:39;;;;;;;;;;;17.60;99.90;;;;;;5031559;28;19980;-82
2022/08/01 01:29:11;;;;;;;;;;;17.60;99.90;;;;;;5015219;28;19964;-82
2022/08/01 01:31:43;;;;;;;;;;;17.50;99.90;;;;;;5014979;28;19925;-81
2022/08/01 01:34:11;;;;;;;;;;;17.60;99.90;;;;;;5031195;28;20028;-81
2022/08/01 01:36:37;;;;;;;;;;;17.50;99.90;;;;;;5014927;28;19932;-81
2022/08/01 01:39:02;;;;;;;;;;;17.60;99.90;;;;;;5118473;27;19926;-82
2022/08/01 01:41:29;;;;;;;;;;;17.60;99.90;;;;;;4998576;28;19952;-81
2022/08/01 01:43:55;;;;;;;;;;;17.60;99.90;;;;;;5031445;28;19926;-81
2022/08/01 01:46:23;;;;;;;;;;;17.50;99.90;;;;;;4998489;28;19932;-81
2022/08/01 01:48:49;;;;;;;;;;;17.50;99.90;;;;;;5014853;28;19929;-81
2022/08/01 01:51:16;;;;;;;;;;;17.50;99.90;;;;;;5014834;28;19925;-81
2022/08/01 01:53:43;;;;;;;;;;;17.50;99.90;;;;;;5014576;28;19925;-81
2022/08/01 01:56:09;;;;;;;;;;;17.50;99.90;;;;;;5031199;28;20364;-81
2022/08/01 01:58:36;;;;;;;;;;;17.50;99.90;;;;;;5014558;28;20357;-81
2022/08/01 02:01:03;;;;;;;;;;;17.50;99.90;;;;;;5118023;27;19925;-83
2022/08/01 02:03:29;;;;;;;;;;;17.50;99.90;;;;;;5014532;28;19929;-82
2022/08/01 02:05:55;;;;;;;;;;;17.50;99.90;;;;;;5014699;28;20285;-81
2022/08/01 02:08:23;;;;;;;;;;;17.50;99.90;;;;;;5014380;28;19925;-81
2022/08/01 02:13:36;;;;;;;;;;;17.40;99.90;;;;;;5134957;27;19933;-81
2022/08/01 02:16:02;;;;;;;;;;;17.40;99.90;;;;;;5117612;27;19959;-82
2022/08/01 02:18:28;;;;;;;;;;;17.40;99.90;;;;;;5117442;27;20122;-81
2022/08/01 02:20:55;;;;;;;;;;;17.40;99.90;;;;;;4998183;28;20258;-81
2022/08/01 02:23:22;;;;;;;;;;;17.40;99.90;;;;;;5030665;28;20246;-86
2022/08/01 02:25:49;;;;;;;;;;;17.30;99.90;;;;;;5030762;28;20353;-81
2022/08/01 02:28:17;;;;;;;;;;;17.30;99.90;;;;;;5030669;28;19950;-81
2022/08/01 02:30:45;;;;;;;;;;;17.30;99.90;;;;;;5014105;28;20388;-81
2022/08/01 02:33:18;;;;;;;;;;;17.20;99.90;;;;;;5030563;28;20254;-81
2022/08/01 02:35:46;;;;;;;;;;;17.20;99.90;;;;;;5013607;28;19941;-81
2022/08/01 02:38:13;;;;;;;;;;;17.30;99.90;;;;;;5013860;28;19926;-81
2022/08/01 02:40:41;;;;;;;;;;;17.20;99.90;;;;;;5117272;27;19936;-82
2022/08/01 02:43:09;;;;;;;;;;;17.20;99.90;;;;;;5014091;28;19925;-81
2022/08/01 02:45:37;;;;;;;;;;;17.20;99.90;;;;;;5013918;28;19925;-82
2022/08/01 02:48:13;;;;;;;;;;;17.20;99.90;;;;;;5013984;28;20417;-82
2022/08/01 02:50:41;;;;;;;;;;;17.20;99.90;;;;;;5030003;28;20403;-82
2022/08/01 02:53:09;;;;;;;;;;;17.20;99.90;;;;;;5030258;28;19929;-82
2022/08/01 02:55:37;;;;;;;;;;;17.20;99.90;;;;;;5013470;28;20376;-82
2022/08/01 02:58:02;;;;;;;;;;;17.20;99.90;;;;;;5030417;28;19932;-82
2022/08/01 03:00:30;;;;;;;;;;;17.10;99.90;;;;;;5013826;28;19929;-82
2022/08/01 03:02:56;;;;;;;;;;;17.10;99.90;;;;;;5030265;28;19981;-82
2022/08/01 03:05:22;;;;;;;;;;;17.10;99.90;;;;;;5116895;27;19925;-81
2022/08/01 03:07:48;;;;;;;;;;;17.20;99.90;;;;;;5029635;28;19929;-81
2022/08/01 03:10:15;;;;;;;;;;;17.10;99.90;;;;;;5030093;28;19937;-81
2022/08/01 03:12:43;;;;;;;;;;;17.00;99.90;;;;;;5116680;27;20366;-81
2022/08/01 03:15:10;;;;;;;;;;;17.00;99.90;;;;;;5013201;28;19936;-81
2022/08/01 03:17:36;;;;;;;;;;;17.00;99.90;;;;;;5013411;28;19932;-81
2022/08/01 03:20:03;;;;;;;;;;;17.00;99.90;;;;;;5029252;28;19933;-82
2022/08/01 03:22:29;;;;;;;;;;;16.90;99.90;;;;;;5013046;28;20300;-83
2022/08/01 03:24:55;;;;;;;;;;;17.00;99.90;;;;;;5116633;27;19934;-82
2022/08/01 03:27:22;;;;;;;;;;;16.90;99.90;;;;;;5116489;27;19998;-81
2022/08/01 03:29:48;;;;;;;;;;;16.90;99.90;;;;;;5116024;27;20299;-82
2022/08/01 03:32:14;;;;;;;;;;;16.90;99.90;;;;;;5029627;28;20477;-81
2022/08/01 03:34:40;;;;;;;;;;;16.90;99.90;;;;;;5029017;28;19932;-81
2022/08/01 03:37:14;;;;;;;;;;;16.90;99.90;;;;;;5029631;28;19941;-81
2022/08/01 03:39:44;;;;;;;;;;;16.90;99.90;;;;;;5029305;28;20377;-82
2022/08/01 03:42:13;;;;;;;;;;;16.80;99.90;;;;;;5013143;28;20025;-82
2022/08/01 03:44:39;;;;;;;;;;;16.80;99.90;;;;;;5012957;28;19929;-82
2022/08/01 03:47:06;;;;;;;;;;;16.80;99.90;;;;;;5029356;28;20025;-82
2022/08/01 03:49:37;;;;;;;;;;;16.80;99.90;;;;;;5012767;28;19925;-83
2022/08/01 03:52:04;;;;;;;;;;;16.80;99.90;;;;;;5029623;28;19925;-82
2022/08/01 03:54:32;;;;;;;;;;;16.70;99.90;;;;;;4996701;28;19948;-81
2022/08/01 03:56:58;;;;;;;;;;;16.70;99.90;;;;;;5013025;28;20296;-81
2022/08/01 03:59:24;;;;;;;;;;;16.70;99.90;;;;;;5115938;28;19925;-82
2022/08/01 04:01:50;;;;;;;;;;;16.70;99.90;;;;;;5012811;28;19946;-82
2022/08/01 04:04:15;;;;;;;;;;;16.70;99.90;;;;;;4996725;28;19925;-82
2022/08/01 04:06:41;;;;;;;;;;;16.70;99.90;;;;;;4996525;28;19932;-82
2022/08/01 04:09:07;;;;;;;;;;;16.70;99.90;;;;;;5012912;28;19933;-81
2022/08/01 04:11:33;;;;;;;;;;;16.70;99.90;;;;;;5012722;28;19925;-92
2022/08/01 04:13:59;;;;;;;;;;;16.70;99.90;;;;;;5028925;28;19936;-82
2022/08/01 04:16:24;;;;;;;;;;;16.70;99.90;;;;;;5029287;28;19925;-81
2022/08/01 04:18:50;;;;;;;;;;;16.70;99.90;;;;;;5012603;28;19925;-81
2022/08/01 04:21:22;;;;;;;;;;;16.70;99.90;;;;;;5012759;28;19925;-81
2022/08/01 04:23:49;;;;;;;;;;;16.70;99.90;;;;;;5012608;28;19977;-82
2022/08/01 04:26:16;;;;;;;;;;;16.70;99.90;;;;;;5116507;28;19932;-81
2022/08/01 04:28:42;;;;;;;;;;;16.70;99.90;;;;;;5028634;28;19925;-82
2022/08/01 04:31:11;;;;;;;;;;;16.70;99.90;;;;;;5029063;28;19925;-81
2022/08/01 04:33:40;;;;;;;;;;;16.70;99.90;;;;;;5015371;28;19936;-82
2022/08/01 04:36:06;;;;;;;;;;;16.70;99.90;;;;;;5032480;28;19974;-81
2022/08/01 04:38:33;;;;;;;;;;;16.70;99.90;;;;;;5032436;28;19929;-81
2022/08/01 04:40:59;;;;;;;;;;;16.70;99.90;;;;;;5015856;28;20241;-82
2022/08/01 04:43:24;;;;;;;;;;;16.70;99.90;;;;;;5032550;28;19925;-81
2022/08/01 04:45:50;;;;;;;;;;;16.70;99.90;;;;;;5032174;28;20309;-81
2022/08/01 04:48:19;;;;;;;;;;;16.70;99.90;;;;;;5015877;28;19929;-81
2022/08/01 04:50:45;;;;;;;;;;;16.70;99.90;;;;;;5015594;28;19925;-81
2022/08/01 04:53:16;;;;;;;;;;;16.70;99.90;;;;;;5015681;28;19933;-82
2022/08/01 04:55:42;;;;;;;;;;;16.70;99.90;;;;;;5032098;28;19925;-82
2022/08/01 04:58:09;;;;;;;;;;;16.70;99.90;;;;;;5119215;27;19932;-82
2022/08/01 05:00:34;;;;;;;;;;;16.70;99.90;;;;;;5015684;28;19929;-82
2022/08/01 05:03:00;;;;;;;;;;;16.70;99.90;;;;;;5015473;28;19925;-82
2022/08/01 05:05:26;;;;;;;;;;;16.70;99.90;;;;;;5015652;28;19925;-82
2022/08/01 05:07:51;;;;;;;;;;;16.70;99.90;;;;;;4998799;28;20283;-82
2022/08/01 05:10:17;;;;;;;;;;;16.70;99.90;;;;;;4998808;28;19974;-82
2022/08/01 05:12:42;;;;;;;;;;;16.70;99.90;;;;;;5101671;28;19926;-82
2022/08/01 05:15:08;;;;;;;;;;;16.80;99.90;;;;;;5015061;28;20000;-82
2022/08/01 05:17:33;;;;;;;;;;;16.70;99.90;;;;;;5031849;28;19929;-81
2022/08/01 05:19:59;;;;;;;;;;;16.80;99.90;;;;;;4998853;28;19989;-83
2022/08/01 05:22:25;;;;;;;;;;;16.80;99.90;;;;;;5031818;28;20006;-81
2022/08/01 05:24:52;;;;;;;;;;;16.80;99.90;;;;;;5015087;28;19925;-82
2022/08/01 05:27:18;;;;;;;;;;;16.80;99.90;;;;;;4999181;28;19925;-81
2022/08/01 05:29:44;;;;;;;;;;;16.80;99.90;;;;;;5118526;27;19925;-83
2022/08/01 05:32:09;;;;;;;;;;;16.80;99.90;;;;;;4998952;28;20389;-82
2022/08/01 05:34:35;;;;;;;;;;;16.80;99.90;;;;;;5014643;28;20305;-81
2022/08/01 05:37:00;;;;;;;;;;;16.80;99.90;;;;;;4998621;28;20023;-82
2022/08/01 05:39:26;;;;;;;;;;;16.80;99.90;;;;;;4998884;28;20054;-81
2022/08/01 05:41:52;;;;;;;;;;;16.80;99.90;;;;;;5031379;28;19932;-82
2022/08/01 05:44:17;;;;;;;;;;;16.90;99.90;;;;;;5030664;28;20396;-81
2022/08/01 05:46:43;;;;;;;;;;;16.80;99.90;;;;;;5031516;28;19932;-82
2022/08/01 05:49:08;;;;;;;;;;;16.80;99.90;;;;;;4998326;28;19989;-82
2022/08/01 05:51:34;;;;;;;;;;;16.80;99.90;;;;;;5014681;28;19925;-81
2022/08/01 05:53:59;;;;;;;;;;;16.80;99.90;;;;;;5014395;28;19925;-83
2022/08/01 05:56:25;;;;;;;;;;;16.80;99.90;;;;;;5031255;28;19931;-82
2022/08/01 05:58:51;;;;;;;;;;;16.70;99.90;;;;;;5014628;28;19969;-81
2022/08/01 06:01:17;;;;;;;;;;;16.70;99.90;;;;;;5031039;28;20326;-82
2022/08/01 06:03:43;;;;;;;;;;;16.70;99.90;;;;;;5118089;27;19932;-82
2022/08/01 06:06:09;;;;;;;;;;;16.70;99.90;;;;;;4998073;28;19929;-82
2022/08/01 06:08:34;;;;;;;;;;;16.70;99.90;;;;;;5014525;28;19968;-81
2022/08/01 06:11:00;;;;;;;;;;;16.60;99.90;;;;;;4998299;28;19925;-83
2022/08/01 06:13:25;;;;;;;;;;;16.60;99.90;;;;;;5030898;28;20012;-82
2022/08/01 06:15:51;;;;;;;;;;;16.70;99.90;;;;;;4997639;28;20066;-82
2022/08/01 06:18:17;;;;;;;;;;;16.70;99.90;;;;;;5030984;28;19926;-82
2022/08/01 06:20:43;;;;;;;;;;;16.70;99.90;;;;;;5030981;28;20233;-82
2022/08/01 06:23:08;;;;;;;;;;;16.70;99.90;;;;;;5014207;28;20051;-82
2022/08/01 06:25:34;;;;;;;;;;;16.80;99.90;;;;;;5013978;28;19931;-82
2022/08/01 06:28:00;;;;;;;;;;;16.80;99.90;;;;;;5030594;28;20002;-82
2022/08/01 06:30:26;;;;;;;;;;;16.80;99.90;;;;;;5014376;28;19925;-82
2022/08/01 06:32:51;;;;;;;;;;;16.80;99.90;;;;;;5014129;28;20294;-82
2022/08/01 06:35:17;;;;;;;;;;;16.80;99.90;;;;;;5013457;28;19925;-82
2022/08/01 06:37:44;;;;;;;;;;;16.90;99.90;;;;;;5014172;28;19925;-82
2022/08/01 06:40:11;;;;;;;;;;;16.90;99.90;;;;;;5014132;28;19929;-82
2022/08/01 06:42:36;;;;;;;;;;;16.90;99.90;;;;;;5100208;28;19959;-82
2022/08/01 06:45:02;;;;;;;;;;;16.90;99.90;;;;;;5030335;28;19925;-82
2022/08/01 06:47:28;;;;;;;;;;;16.90;99.90;;;;;;5014065;28;20006;-82
2022/08/01 06:49:54;;;;;;;;;;;17.00;99.90;;;;;;5013878;28;20440;-83
2022/08/01 06:52:19;;;;;;;;;;;17.10;99.90;;;;;;5013653;28;19926;-82
2022/08/01 06:54:45;;;;;;;;;;;17.10;99.90;;;;;;5029166;28;19925;-82
2022/08/01 06:57:10;;;;;;;;;;;17.20;99.90;;;;;;5030223;28;19925;-83
2022/08/01 06:59:36;;;;;;;;;;;17.10;99.90;;;;;;4997469;28;19925;-82
2022/08/01 07:02:02;;;;;;;;;;;17.30;99.90;;;;;;4997392;28;19932;-83
2022/08/01 07:04:27;;;;;;;;;;;17.30;99.90;;;;;;5014035;28;19972;-82
2022/08/01 07:06:53;;;;;;;;;;;17.30;99.90;;;;;;5029974;28;19937;-89
2022/08/01 07:09:18;;;;;;;;;;;17.30;99.90;;;;;;4997412;28;19933;-82
2022/08/01 07:11:44;;;;;;;;;;;17.20;99.90;;;;;;5030148;28;20337;-81
2022/08/01 07:14:09;;;;;;;;;;;17.20;99.90;;;;;;5013037;28;19925;-82
2022/08/01 07:16:35;;;;;;;;;;;17.20;99.90;;;;;;5013648;28;19932;-82
2022/08/01 07:19:01;;;;;;;;;;;17.20;99.90;;;;;;5013466;28;19925;-83
2022/08/01 07:21:26;;;;;;;;;;;17.30;99.90;;;;;;4997269;28;20357;-82
2022/08/01 07:23:52;;;;;;;;;;;17.30;99.90;;;;;;5029957;28;20027;-82
2022/08/01 07:26:17;;;;;;;;;;;17.30;99.90;;;;;;5029693;28;19932;-82
2022/08/01 07:28:43;;;;;;;;;;;17.40;99.90;;;;;;5013512;28;19978;-82
2022/08/01 07:31:08;;;;;;;;;;;17.50;99.90;;;;;;5013224;28;19976;-83
2022/08/01 07:33:34;;;;;;;;;;;17.40;99.90;;;;;;5029794;28;19925;-82
2022/08/01 07:35:59;;;;;;;;;;;17.50;99.90;;;;;;5012706;28;19973;-85
2022/08/01 07:38:25;;;;;;;;;;;17.50;99.90;;;;;;4996934;28;19925;-82
2022/08/01 07:40:51;;;;;;;;;;;17.70;99.90;;;;;;4996889;28;19926;-82
2022/08/01 07:43:16;;;;;;;;;;;17.70;99.90;;;;;;5116033;27;20495;-82
2022/08/01 07:45:42;;;;;;;;;;;17.60;99.90;;;;;;5029337;28;19932;-82
2022/08/01 07:48:07;;;;;;;;;;;17.60;99.90;;;;;;5013030;28;19925;-82
2022/08/01 07:50:33;;;;;;;;;;;17.70;99.90;;;;;;4997016;28;20015;-82
2022/08/01 07:52:59;;;;;;;;;;;17.80;99.90;;;;;;5012903;28;19932;-84
2022/08/01 07:55:24;;;;;;;;;;;17.90;99.90;;;;;;5013103;28;20024;-83
2022/08/01 07:57:50;;;;;;;;;;;17.80;99.90;;;;;;5013042;28;19997;-82
2022/08/01 08:00:16;;;;;;;;;;;17.90;99.90;;;;;;5012892;28;20281;-83
2022/08/01 08:02:41;;;;;;;;;;;18.00;99.90;;;;;;5013064;28;19925;-82
2022/08/01 08:05:07;;;;;;;;;;;18.10;99.90;;;;;;5012819;28;19925;-83
2022/08/01 08:07:33;;;;;;;;;;;18.10;99.90;;;;;;5032295;28;19983;-82
2022/08/01 08:09:58;;;;;;;;;;;18.00;99.90;;;;;;5016501;28;19977;-82
2022/08/01 08:12:24;;;;;;;;;;;18.00;99.90;;;;;;5016207;28;19926;-82
2022/08/01 08:14:50;;;;;;;;;;;18.10;99.90;;;;;;5032773;28;19976;-82
2022/08/01 08:17:15;;;;;;;;;;;18.20;99.90;;;;;;5032594;28;19981;-82
2022/08/01 08:19:41;;;;;;;;;;;18.30;99.90;;;;;;5016393;28;19925;-82
2022/08/01 08:22:07;;;;;;;;;;;18.40;99.90;;;;;;5016180;28;19925;-82
2022/08/01 08:24:33;;;;;;;;;;;18.40;99.90;;;;;;5015928;28;19932;-83
2022/08/01 08:27:00;;;;;;;;;;;18.30;99.90;;;;;;5032717;28;19929;-83
2022/08/01 08:29:27;;;;;;;;;;;18.30;99.90;;;;;;5032144;28;20365;-83
2022/08/01 08:31:54;;;;;;;;;;;18.30;99.90;;;;;;5032571;28;20383;-82
2022/08/01 08:34:20;;;;;;;;;;;18.40;99.90;;;;;;5118802;27;20349;-82
2022/08/01 08:36:46;;;;;;;;;;;18.60;99.90;;;;;;5016105;28;19932;-82
2022/08/01 08:39:11;;;;;;;;;;;18.80;99.90;;;;;;4999529;28;19932;-83
2022/08/01 08:41:37;;;;;;;;;;;18.70;99.90;;;;;;4999419;28;19932;-83
2022/08/01 08:44:03;;;;;;;;;;;18.70;99.90;;;;;;5015940;28;19964;-84
2022/08/01 08:46:32;;;;;;;;;;;18.60;99.90;;;;;;5032299;28;19952;-83
2022/08/01 08:48:58;;;;;;;;;;;18.50;99.90;;;;;;5015946;28;19925;-83
2022/08/01 08:51:25;;;;;;;;;;;18.50;99.90;;;;;;5015601;28;20388;-83
2022/08/01 08:53:54;;;;;;;;;;;18.60;99.90;;;;;;5032113;28;20011;-84
2022/08/01 08:56:20;;;;;;;;;;;18.60;99.90;;;;;;5032095;28;19929;-84
2022/08/01 08:58:46;;;;;;;;;;;18.70;99.90;;;;;;5032181;28;19978;-83
2022/08/01 09:01:12;;;;;;;;;;;18.70;99.90;;;;;;5119093;27;19926;-83
2022/08/01 09:03:38;;;;;;;;;;;18.80;99.90;;;;;;5015652;28;20360;-84
2022/08/01 09:06:04;;;;;;;;;;;18.90;99.90;;;;;;5015277;28;20365;-84
2022/08/01 09:08:29;;;;;;;;;;;18.80;99.90;;;;;;5031497;28;19925;-83
2022/08/01 09:10:55;;;;;;;;;;;18.80;99.90;;;;;;5015496;28;19932;-83
2022/08/01 09:13:20;;;;;;;;;;;18.80;99.90;;;;;;5015255;28;20376;-83
2022/08/01 09:15:48;;;;;;;;;;;18.90;99.90;;;;;;5031507;28;19933;-83
2022/08/01 09:18:26;;;;;;;;;;;19.00;99.90;;;;;;5030846;28;19933;-83
2022/08/01 09:21:06;;;;;;;;;;;19.00;99.90;;;;;;5015390;28;19948;-83
2022/08/01 09:23:32;;;;;;;;;;;19.10;99.90;;;;;;5015227;28;19948;-84
2022/08/01 09:25:58;;;;;;;;;;;19.10;99.90;;;;;;5031829;28;20365;-83
2022/08/01 09:28:28;;;;;;;;;;;19.20;99.90;;;;;;5031552;28;19925;-83
2022/08/01 09:30:55;;;;;;;;;;;19.30;99.90;;;;;;5031677;28;19929;-83
2022/08/01 09:33:20;;;;;;;;;;;19.30;99.90;;;;;;5031328;28;19926;-83
2022/08/01 09:35:53;;;;;;;;;;;19.30;99.90;;;;;;5031174;28;19925;-83
2022/08/01 09:38:20;;;;;;;;;;;19.40;99.90;;;;;;5014949;28;19936;-83
2022/08/01 09:40:59;;;;;;;;;;;19.30;99.90;;;;;;4998765;28;19972;-83
2022/08/01 09:43:26;;;;;;;;;;;19.30;99.90;;;;;;5031386;28;19925;-83
2022/08/01 09:45:52;;;;;;;;;;;19.30;99.90;;;;;;5015029;28;19925;-83
2022/08/01 09:48:18;;;;;;;;;;;19.30;99.90;;;;;;5014771;28;19945;-83
2022/08/01 09:50:45;;;;;;;;;;;19.40;99.90;;;;;;5118194;27;19925;-83
2022/08/01 09:53:10;;;;;;;;;;;19.60;99.90;;;;;;5014928;28;19932;-83
2022/08/01 09:55:37;;;;;;;;;;;19.70;99.90;;;;;;5030806;28;19925;-83
2022/08/01 09:58:04;;;;;;;;;;;19.80;99.90;;;;;;5031240;28;19932;-83
2022/08/01 10:00:31;;;;;;;;;;;19.70;99.90;;;;;;4998423;28;19993;-83
2022/08/01 10:02:56;;;;;;;;;;;19.70;99.90;;;;;;4998553;28;19924;-83
2022/08/01 10:05:35;;;;;;;;;;;19.60;99.90;;;;;;5014507;28;20325;-84
2022/08/01 10:08:03;;;;;;;;;;;19.60;99.90;;;;;;5014623;28;19930;-84
2022/08/01 10:10:28;;;;;;;;;;;19.50;99.90;;;;;;5117702;27;19926;-83
2022/08/01 10:12:55;;;;;;;;;;;19.60;99.90;;;;;;5014610;28;19932;-83
2022/08/01 10:15:21;;;;;;;;;;;19.80;99.90;;;;;;5030409;28;20368;-84
2022/08/01 10:17:57;;;;;;;;;;;19.70;99.90;;;;;;5030961;28;19925;-83
2022/08/01 10:20:25;;;;;;;;;;;19.70;99.90;;;;;;5030735;28;19981;-83
2022/08/01 10:22:53;;;;;;;;;;;19.70;99.90;;;;;;5030617;28;20437;-83
2022/08/01 10:25:19;;;;;;;;;;;19.80;99.90;;;;;;5014166;28;19925;-83
2022/08/01 10:27:45;;;;;;;;;;;20.00;99.90;;;;;;5014455;28;19931;-83
2022/08/01 10:30:11;;;;;;;;;;;20.10;99.90;;;;;;5030652;28;19925;-83
2022/08/01 10:32:37;;;;;;;;;;;20.10;99.90;;;;;;4997786;28;19932;-83
2022/08/01 10:35:06;;;;;;;;;;;19.90;99.90;;;;;;5013781;28;19932;-83
2022/08/01 10:37:35;;;;;;;;;;;19.80;99.90;;;;;;5030170;28;19990;-83
2022/08/01 10:40:01;;;;;;;;;;;19.80;99.90;;;;;;5014207;28;19974;-83
2022/08/01 10:42:27;;;;;;;;;;;19.70;99.90;;;;;;5013965;28;19926;-83
2022/08/01 10:44:54;;;;;;;;;;;19.90;99.90;;;;;;4997948;28;19929;-83
2022/08/01 10:47:35;;;;;;;;;;;20.00;99.90;;;;;;5013855;28;19929;-84
2022/08/01 10:50:01;;;;;;;;;;;20.20;99.90;;;;;;5030245;28;20391;-83
2022/08/01 10:52:26;;;;;;;;;;;20.40;99.90;;;;;;5030337;28;20020;-83
2022/08/01 10:55:03;;;;;;;;;;;20.50;99.90;;;;;;5030013;28;19925;-82
2022/08/01 10:57:44;;;;;;;;;;;20.60;99.90;;;;;;5030147;28;19968;-83
2022/08/01 11:00:16;;;;;;;;;;;20.80;99.90;;;;;;4997682;28;19933;-83
2022/08/01 11:02:56;;;;;;;;;;;20.80;99.90;;;;;;5116872;27;20110;-82
2022/08/01 11:05:23;;;;;;;;;;;20.80;99.90;;;;;;5029738;28;20372;-83
2022/08/01 11:07:52;;;;;;;;;;;20.60;99.90;;;;;;5013867;28;19929;-83
2022/08/01 11:10:20;;;;;;;;;;;20.50;99.90;;;;;;5030171;28;20388;-83
2022/08/01 11:12:46;;;;;;;;;;;20.60;99.90;;;;;;5030104;28;19925;-84
2022/08/01 11:15:11;;;;;;;;;;;20.70;99.90;;;;;;5013104;28;19925;-83
2022/08/01 11:17:49;;;;;;;;;;;20.80;99.90;;;;;;5029858;28;20104;-84
2022/08/01 11:20:15;;;;;;;;;;;21.00;99.90;;;;;;5030122;28;19974;-84
2022/08/01 11:23:05;;;;;;;;;;;21.10;99.90;;;;;;5029763;28;20298;-84
2022/08/01 11:25:33;;;;;;;;;;;21.00;99.90;;;;;;5013380;28;20377;-84
2022/08/01 11:28:19;;;;;;;;;;;21.20;99.90;;;;;;5013541;28;20018;-84
2022/08/01 11:30:49;;;;;;;;;;;21.30;99.90;;;;;;5012613;28;19925;-83
2022/08/01 11:33:16;;;;;;;;;;;21.50;99.90;;;;;;5029137;28;20012;-84
2022/08/01 11:36:00;;;;;;;;;;;21.80;99.90;;;;;;5029187;28;19925;-83
2022/08/01 11:38:27;;;;;;;;;;;22.00;99.90;;;;;;5116246;27;19929;-84
2022/08/01 11:41:12;;;;;;;;;;;22.00;99.90;;;;;;5029231;28;20025;-84
2022/08/01 11:43:57;;;;;;;;;;;21.90;99.90;;;;;;5116248;27;19990;-84
2022/08/01 11:46:41;;;;;;;;;;;22.00;99.90;;;;;;5029662;28;19925;-84
2022/08/01 11:49:25;;;;;;;;;;;22.30;99.90;;;;;;5116319;28;19925;-84
2022/08/01 11:52:02;;;;;;;;;;;22.20;99.90;;;;;;5029796;28;19925;-84
2022/08/01 11:54:29;;;;;;;;;;;22.50;99.90;;;;;;5029156;28;19935;-84
2022/08/01 11:56:58;;;;;;;;;;;22.80;99.90;;;;;;5029532;28;20377;-83
2022/08/01 11:59:24;;;;;;;;;;;23.00;99.90;;;;;;5012981;28;19925;-84
2022/08/01 12:01:49;;;;;;;;;;;23.30;99.90;;;;;;5012499;28;19933;-84
2022/08/01 12:04:15;;;;;;;;;;;23.70;99.50;;;;;;5013081;28;20008;-84
2022/08/01 12:06:41;;;;;;;;;;;23.60;99.80;;;;;;5029309;28;19971;-84
2022/08/01 12:09:36;;;;;;;;;;;23.50;99.50;;;;;;4996542;28;20364;-84
2022/08/01 12:12:01;;;;;;;;;;;23.60;97.80;;;;;;5012128;28;20291;-85
2022/08/01 12:14:27;;;;;;;;;;;23.90;99.50;;;;;;5029097;28;20007;-90
2022/08/01 12:16:53;;;;;;;;;;;23.90;98.00;;;;;;4996516;28;19925;-84
2022/08/01 12:19:20;;;;;;;;;;;24.00;99.10;;;;;;5029268;28;20391;-84
2022/08/01 12:22:04;;;;;;;;;;;24.10;98.90;;;;;;5028822;28;19925;-84
2022/08/01 12:24:30;;;;;;;;;;;23.90;97.00;;;;;;5029289;28;19926;-85
2022/08/01 12:26:55;;;;;;;;;;;23.80;98.00;;;;;;4996431;28;20085;-84
2022/08/01 12:29:34;;;;;;;;;;;23.60;98.00;;;;;;5012676;28;20363;-84
2022/08/01 12:32:00;;;;;;;;;;;23.50;96.90;;;;;;5115686;28;20000;-85
2022/08/01 12:34:28;;;;;;;;;;;23.70;98.20;;;;;;5012267;28;19929;-84
2022/08/01 12:36:55;;;;;;;;;;;24.00;99.00;;;;;;5029137;28;19925;-84
2022/08/01 12:39:21;;;;;;;;;;;23.70;96.60;;;;;;5028758;28;19925;-84
2022/08/01 12:41:46;;;;;;;;;;;23.60;97.00;;;;;;5012389;28;19932;-84
2022/08/01 12:44:16;;;;;;;;;;;23.90;98.70;;;;;;4996194;28;20381;-84
2022/08/01 12:46:42;;;;;;;;;;;24.50;98.70;;;;;;4996201;28;19925;-85
2022/08/01 12:49:07;;;;;;;;;;;25.10;97.80;;;;;;5028904;28;19932;-85
2022/08/01 12:51:33;;;;;;;;;;;25.20;95.40;;;;;;5012376;28;19925;-85
2022/08/01 12:53:59;;;;;;;;;;;25.40;96.30;;;;;;5014298;28;19978;-84
2022/08/01 12:56:32;;;;;;;;;;;25.40;95.10;;;;;;5032287;28;19925;-84
2022/08/01 12:58:59;;;;;;;;;;;25.30;96.30;;;;;;5032157;28;20340;-85
2022/08/01 13:01:26;;;;;;;;;;;25.40;96.00;;;;;;5032182;28;19926;-84
2022/08/01 13:04:03;;;;;;;;;;;25.60;94.90;;;;;;5032049;28;19929;-85
2022/08/01 13:06:30;;;;;;;;;;;25.60;96.20;;;;;;5015762;28;19989;-85
2022/08/01 13:09:04;;;;;;;;;;;25.70;95.30;;;;;;5031901;28;19932;-85
2022/08/01 13:11:29;;;;;;;;;;;25.90;94.10;;;;;;5119160;27;19929;-85
2022/08/01 13:13:56;;;;;;;;;;;26.10;93.60;;;;;;5031565;28;19925;-85
2022/08/01 13:16:23;;;;;;;;;;;26.20;93.50;;;;;;5031924;28;19979;-86
2022/08/01 13:18:50;;;;;;;;;;;25.90;93.00;;;;;;5015485;28;20019;-85
2022/08/01 13:21:20;;;;;;;;;;;25.90;92.60;;;;;;5015479;28;19948;-86
2022/08/01 13:24:01;;;;;;;;;;;25.90;92.70;;;;;;5031697;28;19932;-85
2022/08/01 13:26:47;;;;;;;;;;;26.20;93.80;;;;;;5031841;28;19985;-85
2022/08/01 13:29:14;;;;;;;;;;;26.50;93.10;;;;;;5031802;28;19925;-84
2022/08/01 13:31:40;;;;;;;;;;;25.90;92.50;;;;;;5031589;28;19940;-85
2022/08/01 13:34:06;;;;;;;;;;;25.80;93.80;;;;;;5031248;28;19926;-85
2022/08/01 13:36:31;;;;;;;;;;;25.90;93.20;;;;;;5031369;28;19925;-84
2022/08/01 13:41:42;;;;;;;;;;;26.00;93.00;;;;;;5135941;27;20020;-85
2022/08/01 13:44:08;;;;;;;;;;;25.90;92.50;;;;;;5015085;28;19969;-84
2022/08/01 13:46:34;;;;;;;;;;;26.00;92.90;;;;;;5015168;28;20278;-84
2022/08/01 13:49:00;;;;;;;;;;;25.90;92.20;;;;;;5014805;28;20292;-85
2022/08/01 13:51:26;;;;;;;;;;;26.10;92.30;;;;;;5118383;27;19926;-84
2022/08/01 13:53:51;;;;;;;;;;;26.30;92.50;;;;;;5014610;28;19933;-84
2022/08/01 13:56:18;;;;;;;;;;;27.00;92.10;;;;;;5014830;28;20425;-84
2022/08/01 13:58:44;;;;;;;;;;;26.90;91.50;;;;;;5030854;28;19925;-85
2022/08/01 14:01:09;;;;;;;;;;;27.30;91.20;;;;;;5031185;28;20107;-85
2022/08/01 14:03:35;;;;;;;;;;;27.50;89.40;;;;;;5014146;28;19926;-85
2022/08/01 14:06:01;;;;;;;;;;;27.80;90.00;;;;;;4998327;28;20272;-86
2022/08/01 14:08:27;;;;;;;;;;;28.50;91.00;;;;;;5030807;28;19932;-84
2022/08/01 14:10:56;;;;;;;;;;;28.80;89.40;;;;;;5014475;28;19925;-85
2022/08/01 14:13:22;;;;;;;;;;;29.10;88.20;;;;;;5031145;28;19925;-84
2022/08/01 14:15:49;;;;;;;;;;;29.50;88.10;;;;;;5030533;28;20277;-85
2022/08/01 14:18:15;;;;;;;;;;;29.70;87.60;;;;;;5117779;27;20425;-84
2022/08/01 14:20:41;;;;;;;;;;;29.80;84.90;;;;;;4998111;28;19929;-87
2022/08/01 14:23:07;;;;;;;;;;;29.70;83.40;;;;;;5030939;28;19932;-85